createdAt,value
2018-02-04T00:00:27.859Z,96786.48
2018-02-04T00:02:58.970Z,96784.94
2018-02-04T00:05:30.040Z,96783.30
2018-02-04T00:08:01.252Z,96785.61
2018-02-04T00:10:32.350Z,96792.23
2018-02-04T00:13:03.441Z,96792.16
2018-02-04T00:15:34.490Z,96786.95
2018-02-04T00:18:05.598Z,96800.63
2018-02-04T00:20:36.655Z,96803.58
2018-02-04T00:23:07.764Z,96803.05
2018-02-04T00:25:38.892Z,96803.28
2018-02-04T00:28:10.056Z,96807.60
2018-02-04T00:30:41.199Z,96809.30
2018-02-04T00:33:12.275Z,96802.86
2018-02-04T00:35:43.354Z,96805.65
2018-02-04T00:38:14.498Z,96806.95
2018-02-04T00:40:45.591Z,96803.34
2018-02-04T00:43:16.691Z,96805.08
2018-02-04T00:45:47.735Z,96803.77
2018-02-04T00:48:18.810Z,96800.94
2018-02-04T00:50:49.853Z,96804.28
2018-02-04T00:53:20.935Z,96805.37
2018-02-04T00:55:52.022Z,96810.37
2018-02-04T00:58:23.091Z,96807.25
2018-02-04T01:00:54.148Z,96807.57
2018-02-04T01:03:25.274Z,96810.52
2018-02-04T01:05:56.319Z,96822.64
2018-02-04T01:08:27.415Z,96813.47
2018-02-04T01:10:58.595Z,96818.17
2018-02-04T01:13:29.662Z,96825.64
2018-02-04T01:16:00.757Z,96821.22
2018-02-04T01:18:31.790Z,96824.19
2018-02-04T01:21:02.882Z,96829.95
2018-02-04T01:23:33.945Z,96830.35
2018-02-04T01:26:05.102Z,96830.13
2018-02-04T01:28:36.154Z,96831.94
2018-02-04T01:31:07.361Z,96835.53
2018-02-04T01:33:38.447Z,96832.92
2018-02-04T01:36:09.530Z,96838.94
2018-02-04T01:38:40.631Z,96834.16
2018-02-04T01:41:11.741Z,96840.88
2018-02-04T01:43:42.806Z,96847.78
2018-02-04T01:46:13.905Z,96849.59
2018-02-04T01:48:44.946Z,96846.16
2018-02-04T01:51:16.093Z,96849.20
2018-02-04T01:53:47.174Z,96857.17
2018-02-04T01:56:18.258Z,96858.09
2018-02-04T01:58:49.304Z,96854.58
2018-02-04T02:01:20.427Z,96858.92
2018-02-04T02:03:51.483Z,96856.32
2018-02-04T02:06:22.568Z,96858.59
2018-02-04T02:08:53.621Z,96859.27
2018-02-04T02:11:24.678Z,96858.52
2018-02-04T02:13:55.759Z,96853.89
2018-02-04T02:16:26.847Z,96861.31
2018-02-04T02:18:57.939Z,96866.09
2018-02-04T02:21:29.010Z,96866.44
2018-02-04T02:24:00.131Z,96873.91
2018-02-04T02:26:31.198Z,96874.00
2018-02-04T02:29:02.316Z,96868.52
2018-02-04T02:31:33.399Z,96875.48
2018-02-04T02:34:04.503Z,96877.11
2018-02-04T02:36:35.523Z,96873.48
2018-02-04T02:39:06.634Z,96875.31
2018-02-04T02:41:37.704Z,96873.19
2018-02-04T02:44:08.827Z,96871.52
2018-02-04T02:46:39.869Z,96875.80
2018-02-04T02:49:11.025Z,96876.31
2018-02-04T02:51:42.086Z,96879.20
2018-02-04T02:54:13.191Z,96879.05
2018-02-04T02:56:44.255Z,96883.11
2018-02-04T02:59:15.375Z,96888.50
2018-02-04T03:01:46.443Z,96884.30
2018-02-04T03:04:17.542Z,96891.20
2018-02-04T03:06:48.612Z,96898.97
2018-02-04T03:09:19.718Z,96903.05
2018-02-04T03:11:50.764Z,96898.16
2018-02-04T03:14:21.880Z,96901.27
2018-02-04T03:16:52.962Z,96906.67
2018-02-04T03:19:24.095Z,96900.76
2018-02-04T03:21:55.178Z,96902.97
2018-02-04T03:24:26.649Z,96903.57
2018-02-04T03:26:57.694Z,96910.77
2018-02-04T03:29:28.801Z,96918.39
2018-02-04T03:31:59.876Z,96917.17
2018-02-04T03:34:31.124Z,96923.58
2018-02-04T03:37:02.230Z,96921.43
2018-02-04T03:39:33.298Z,96922.92
2018-02-04T03:42:04.349Z,96933.42
2018-02-04T03:44:35.426Z,96928.33
2018-02-04T03:47:06.511Z,96930.52
2018-02-04T03:49:37.620Z,96937.42
2018-02-04T03:52:08.693Z,96935.83
2018-02-04T03:54:39.814Z,96940.23
2018-02-04T03:57:10.908Z,96946.16
2018-02-04T03:59:41.995Z,96955.45
2018-02-04T04:02:13.671Z,96948.53
2018-02-04T04:04:44.723Z,96950.50
2018-02-04T04:07:15.853Z,96944.56
2018-02-04T04:09:46.909Z,96948.66
2018-02-04T04:12:18.171Z,96952.07
2018-02-04T04:14:49.243Z,96951.28
2018-02-04T04:17:20.290Z,96959.09
2018-02-04T04:19:51.357Z,96960.30
2018-02-04T04:22:22.449Z,96963.70
2018-02-04T04:24:53.539Z,96969.60
2018-02-04T04:27:24.646Z,96978.59
2018-02-04T04:29:55.704Z,96974.52
2018-02-04T04:32:26.795Z,96975.61
2018-02-04T04:34:57.877Z,96977.40
2018-02-04T04:37:28.961Z,96976.73
2018-02-04T04:40:00.046Z,96977.20
2018-02-04T04:42:31.327Z,96979.92
2018-02-04T04:45:02.386Z,96986.03
2018-02-04T04:47:33.463Z,96985.30
2018-02-04T04:50:04.531Z,96982.90
2018-02-04T04:52:35.673Z,96986.25
2018-02-04T04:55:06.714Z,96982.95
2018-02-04T04:57:37.766Z,96985.07
2018-02-04T05:00:08.908Z,96981.93
2018-02-04T05:02:39.958Z,96976.32
2018-02-04T05:05:11.012Z,96988.55
2018-02-04T05:07:42.088Z,96986.47
2018-02-04T05:10:13.151Z,96988.64
2018-02-04T05:12:44.207Z,96993.41
2018-02-04T05:15:15.292Z,96992.09
2018-02-04T05:17:46.364Z,96992.69
2018-02-04T05:20:17.468Z,97000.41
2018-02-04T05:22:48.507Z,96997.95
2018-02-04T05:25:19.615Z,97004.06
2018-02-04T05:27:50.663Z,97008.81
2018-02-04T05:30:22.079Z,97015.17
2018-02-04T05:32:53.140Z,97013.07
2018-02-04T05:35:24.234Z,97021.38
2018-02-04T05:37:55.263Z,97028.29
2018-02-04T05:40:26.357Z,97023.38
2018-02-04T05:42:57.443Z,97026.48
2018-02-04T05:45:28.536Z,97028.29
2018-02-04T05:47:59.588Z,97031.93
2018-02-04T05:50:30.735Z,97035.72
2018-02-04T05:53:01.815Z,97040.31
2018-02-04T05:55:32.960Z,97045.33
2018-02-04T05:58:04.776Z,97045.53
2018-02-04T06:00:35.854Z,97056.25
2018-02-04T06:03:06.894Z,97058.05
2018-02-04T06:05:37.971Z,97064.75
2018-02-04T06:08:09.029Z,97055.99
2018-02-04T06:10:40.115Z,97065.78
2018-02-04T06:13:11.199Z,97072.00
2018-02-04T06:15:42.234Z,97073.47
2018-02-04T06:18:13.309Z,97070.89
2018-02-04T06:20:44.352Z,97073.27
2018-02-04T06:23:16.405Z,97080.34
2018-02-04T06:25:47.488Z,97080.09
2018-02-04T06:28:18.622Z,97088.59
2018-02-04T06:30:49.690Z,97092.36
2018-02-04T06:33:20.797Z,97095.44
2018-02-04T06:35:51.874Z,97100.98
2018-02-04T06:38:22.976Z,97102.88
2018-02-04T06:40:54.057Z,97112.61
2018-02-04T06:43:25.142Z,97109.71
2018-02-04T06:45:56.203Z,97114.51
2018-02-04T06:48:27.258Z,97126.84
2018-02-04T06:50:58.308Z,97132.16
2018-02-04T06:53:29.362Z,97136.41
2018-02-04T06:56:00.426Z,97134.47
2018-02-04T06:58:31.449Z,97141.42
2018-02-04T07:01:02.507Z,97139.09
2018-02-04T07:03:33.546Z,97150.52
2018-02-04T07:06:04.614Z,97146.32
2018-02-04T07:08:35.672Z,97152.08
2018-02-04T07:11:06.851Z,97156.20
2018-02-04T07:13:37.911Z,97163.56
2018-02-04T07:16:08.975Z,97171.67
2018-02-04T07:18:40.036Z,97167.77
2018-02-04T07:21:11.092Z,97182.66
2018-02-04T07:23:42.195Z,97180.75
2018-02-04T07:26:13.264Z,97187.67
2018-02-04T07:28:44.406Z,97183.70
2018-02-04T07:31:15.444Z,97188.39
2018-02-04T07:33:47.626Z,97190.31
2018-02-04T07:36:18.670Z,97195.88
2018-02-04T07:38:49.733Z,97197.00
2018-02-04T07:41:20.831Z,97204.87
2018-02-04T07:43:51.920Z,97207.38
2018-02-04T07:46:23.012Z,97207.00
2018-02-04T07:48:54.102Z,97212.80
2018-02-04T07:51:25.136Z,97222.41
2018-02-04T07:53:56.222Z,97222.17
2018-02-04T07:56:27.250Z,97225.41
2018-02-04T07:58:58.329Z,97226.11
2018-02-04T08:01:29.398Z,97234.76
2018-02-04T08:04:00.469Z,97234.20
2018-02-04T08:06:31.524Z,97238.64
2018-02-04T08:09:02.654Z,97245.72
2018-02-04T08:11:33.740Z,97238.64
2018-02-04T08:14:04.840Z,97240.52
2018-02-04T08:16:35.979Z,97245.48
2018-02-04T08:19:07.026Z,97250.23
2018-02-04T08:21:38.105Z,97250.94
2018-02-04T08:24:09.186Z,97252.73
2018-02-04T08:26:40.211Z,97251.02
2018-02-04T08:29:11.269Z,97246.33
2018-02-04T08:31:42.338Z,97251.66
2018-02-04T08:34:13.424Z,97249.72
2018-02-04T08:36:44.659Z,97251.54
2018-02-04T08:39:15.739Z,97253.57
2018-02-04T08:41:46.787Z,97257.89
2018-02-04T08:44:17.808Z,97254.55
2018-02-04T08:46:48.894Z,97261.85
2018-02-04T08:49:19.954Z,97263.83
2018-02-04T08:51:51.026Z,97266.41
2018-02-04T08:54:22.326Z,97269.12
2018-02-04T08:56:53.390Z,97267.39
2018-02-04T08:59:24.488Z,97272.78
2018-02-04T09:01:55.615Z,97269.41
2018-02-04T09:04:26.689Z,97272.25
2018-02-04T09:06:57.763Z,97267.05
2018-02-04T09:09:29.050Z,97266.34
2018-02-04T09:12:00.138Z,97264.16
2018-02-04T09:17:02.159Z,97258.82
2018-02-04T09:19:33.182Z,97262.84
2018-02-04T09:22:04.264Z,97263.97
2018-02-04T09:24:35.353Z,97269.61
2018-02-04T09:27:06.418Z,97282.27
2018-02-04T09:29:37.485Z,97287.00
2018-02-04T09:32:08.614Z,97287.98
2018-02-04T09:34:39.736Z,97287.47
2018-02-04T09:37:10.821Z,97302.60
2018-02-04T09:39:41.898Z,97300.23
2018-02-04T09:42:13.006Z,97311.41
2018-02-04T09:44:44.118Z,97321.84
2018-02-04T09:47:15.195Z,97319.41
2018-02-04T09:49:46.323Z,97331.72
2018-02-04T09:52:17.392Z,97333.05
2018-02-04T09:54:48.488Z,97345.55
2018-02-04T09:57:19.557Z,97347.78
2018-02-04T09:59:50.686Z,97345.68
2018-02-04T10:02:21.754Z,97346.94
2018-02-04T10:04:52.843Z,97352.92
2018-02-04T10:07:23.923Z,97348.46
2018-02-04T10:09:54.963Z,97352.00
2018-02-04T10:12:26.063Z,97344.33
2018-02-04T10:14:57.155Z,97342.97
2018-02-04T10:17:28.248Z,97344.31
2018-02-04T10:19:59.300Z,97339.61
2018-02-04T10:22:30.477Z,97342.75
2018-02-04T10:25:01.557Z,97331.07
2018-02-04T10:27:32.829Z,97336.47
2018-02-04T10:30:03.907Z,97331.13
2018-02-04T10:32:34.954Z,97331.77
2018-02-04T10:35:06.097Z,97327.66
2018-02-04T10:37:37.122Z,97330.71
2018-02-04T10:40:09.024Z,97337.61
2018-02-04T10:42:40.083Z,97334.03
2018-02-04T10:45:11.129Z,97337.36
2018-02-04T10:47:42.218Z,97343.83
2018-02-04T10:50:13.292Z,97346.95
2018-02-04T10:52:44.315Z,97343.02
2018-02-04T10:55:15.394Z,97344.99
2018-02-04T10:57:46.484Z,97337.70
2018-02-04T11:00:17.544Z,97332.83
2018-02-04T11:02:48.777Z,97323.37
2018-02-04T11:05:19.836Z,97327.92
2018-02-04T11:07:50.986Z,97323.07
2018-02-04T11:10:22.088Z,97332.94
2018-02-04T11:12:53.126Z,97345.66
2018-02-04T11:15:24.221Z,97341.87
2018-02-04T11:17:55.320Z,97349.72
2018-02-04T11:20:26.362Z,97351.72
2018-02-04T11:22:57.443Z,97363.75
2018-02-04T11:25:28.805Z,97367.02
2018-02-04T11:27:59.864Z,97362.73
2018-02-04T11:30:31.039Z,97363.81
2018-02-04T11:33:02.127Z,97365.18
2018-02-04T11:35:33.211Z,97362.80
2018-02-04T11:38:04.264Z,97362.09
2018-02-04T11:40:35.330Z,97359.27
2018-02-04T11:43:06.354Z,97356.23
2018-02-04T11:45:37.426Z,97358.11
2018-02-04T11:48:08.498Z,97359.68
2018-02-04T11:50:39.598Z,97359.21
2018-02-04T11:53:10.731Z,97354.59
2018-02-04T11:55:41.842Z,97365.80
2018-02-04T11:58:12.971Z,97359.58
2018-02-04T12:00:44.070Z,97356.84
2018-02-04T12:03:15.209Z,97357.95
2018-02-04T12:05:46.299Z,97361.41
2018-02-04T12:08:17.378Z,97366.44
2018-02-04T12:10:48.445Z,97375.63
2018-02-04T12:13:19.548Z,97376.47
2018-02-04T12:15:50.674Z,97374.05
2018-02-04T12:18:21.750Z,97380.72
2018-02-04T12:20:52.812Z,97380.75
2018-02-04T12:23:23.894Z,97387.55
2018-02-04T12:32:40.034Z,97383.38
2018-02-04T12:35:11.110Z,97383.16
2018-02-04T12:37:42.207Z,97382.09
2018-02-04T12:40:13.306Z,97380.64
2018-02-04T12:42:44.357Z,97382.00
2018-02-04T12:45:15.426Z,97377.81
2018-02-04T12:47:46.524Z,97384.47
2018-02-04T12:50:17.649Z,97383.80
2018-02-04T12:52:48.798Z,97380.20
2018-02-04T12:55:19.865Z,97380.66
2018-02-04T12:57:50.957Z,97379.14
2018-02-04T13:00:22.043Z,97384.71
2018-02-04T13:02:53.096Z,97389.77
2018-02-04T13:05:24.139Z,97392.35
2018-02-04T13:07:55.193Z,97395.57
2018-02-04T13:10:26.282Z,97396.98
2018-02-04T13:12:57.567Z,97394.53
2018-02-04T13:15:28.635Z,97398.39
2018-02-04T13:17:59.709Z,97400.01
2018-02-04T13:20:30.791Z,97400.52
2018-02-04T13:23:01.908Z,97402.85
2018-02-04T13:25:33.176Z,97402.89
2018-02-04T13:28:04.262Z,97399.08
2018-02-04T13:30:35.353Z,97404.53
2018-02-04T13:33:06.433Z,97404.13
2018-02-04T13:35:37.779Z,97409.08
2018-02-04T13:38:08.862Z,97402.27
2018-02-04T13:40:39.950Z,97399.34
2018-02-04T13:43:11.318Z,97406.61
2018-02-04T13:45:42.364Z,97406.89
2018-02-04T13:48:13.444Z,97410.48
2018-02-04T13:50:44.543Z,97415.42
2018-02-04T13:53:15.700Z,97409.52
2018-02-04T13:55:46.794Z,97421.38
2018-02-04T13:58:17.903Z,97420.88
2018-02-04T14:00:48.954Z,97425.50
2018-02-04T14:03:20.070Z,97417.24
2018-02-04T14:05:51.243Z,97427.48
2018-02-04T14:08:22.349Z,97429.05
2018-02-04T14:10:53.456Z,97431.98
2018-02-04T14:13:24.581Z,97435.80
2018-02-04T14:15:55.655Z,97434.44
2018-02-04T14:18:26.728Z,97435.73
2018-02-04T14:20:57.828Z,97439.06
2018-02-04T14:23:28.943Z,97443.22
2018-02-04T14:26:00.014Z,97447.24
2018-02-04T14:28:31.095Z,97447.48
2018-02-04T14:31:02.178Z,97455.91
2018-02-04T14:33:33.279Z,97457.70
2018-02-04T14:36:04.590Z,97464.51
2018-02-04T14:38:35.670Z,97457.96
2018-02-04T14:41:06.789Z,97461.95
2018-02-04T14:43:37.933Z,97463.28
2018-02-04T14:46:09.020Z,97474.48
2018-02-04T14:48:40.066Z,97478.89
2018-02-04T14:51:11.086Z,97481.78
2018-02-04T14:53:42.189Z,97486.32
2018-02-04T14:56:13.352Z,97480.19
2018-02-04T14:58:44.468Z,97487.29
2018-02-04T15:01:15.558Z,97484.31
2018-02-04T15:03:46.639Z,97484.84
2018-02-04T15:06:17.730Z,97485.95
2018-02-04T15:08:48.782Z,97496.92
2018-02-04T15:11:19.854Z,97506.09
2018-02-04T15:13:51.074Z,97516.33
2018-02-04T15:16:22.093Z,97518.53
2018-02-04T15:18:53.177Z,97517.47
2018-02-04T15:21:24.262Z,97520.63
2018-02-04T15:23:55.721Z,97523.52
2018-02-04T15:26:26.903Z,97524.34
2018-02-04T15:28:57.995Z,97520.98
2018-02-04T15:31:29.069Z,97529.94
2018-02-04T15:34:00.141Z,97530.95
2018-02-04T15:36:31.190Z,97535.45
2018-02-04T15:39:02.244Z,97539.72
2018-02-04T15:41:33.409Z,97545.39
2018-02-04T15:44:04.469Z,97553.09
2018-02-04T15:46:35.552Z,97553.28
2018-02-04T15:49:06.702Z,97561.80
2018-02-04T15:51:37.806Z,97567.00
2018-02-04T15:54:08.878Z,97573.81
2018-02-04T15:56:39.985Z,97573.77
2018-02-04T15:59:17.928Z,97580.34
2018-02-04T16:01:49.038Z,97584.54
2018-02-04T16:04:20.129Z,97584.98
2018-02-04T16:06:51.210Z,97587.87
2018-02-04T16:09:22.317Z,97595.67
2018-02-04T16:11:53.400Z,97592.41
2018-02-04T16:14:24.507Z,97597.73
2018-02-04T16:16:55.596Z,97599.86
2018-02-04T16:19:26.697Z,97606.50
2018-02-04T16:21:57.762Z,97601.60
2018-02-04T16:24:28.878Z,97604.33
2018-02-04T16:26:59.981Z,97608.19
2018-02-04T16:29:31.069Z,97615.04
2018-02-04T16:32:02.190Z,97614.44
2018-02-04T16:34:33.295Z,97615.86
2018-02-04T16:37:04.358Z,97618.25
2018-02-04T16:39:35.428Z,97623.44
2018-02-04T16:42:06.508Z,97635.25
2018-02-04T16:44:37.608Z,97632.24
2018-02-04T16:47:08.703Z,97631.07
2018-02-04T16:49:39.766Z,97636.36
2018-02-04T16:52:10.858Z,97636.75
2018-02-04T16:54:41.933Z,97635.25
2018-02-04T16:57:13.031Z,97640.75
2018-02-04T16:59:44.618Z,97632.94
2018-02-04T17:02:15.706Z,97646.67
2018-02-04T17:04:46.747Z,97646.56
2018-02-04T17:07:17.890Z,97651.37
2018-02-04T17:09:48.950Z,97651.86
2018-02-04T17:12:20.026Z,97656.84
2018-02-04T17:14:51.116Z,97660.66
2018-02-04T17:17:22.791Z,97661.56
2018-02-04T17:19:53.913Z,97669.34
2018-02-04T17:22:25.038Z,97673.86
2018-02-04T17:24:56.197Z,97682.66
2018-02-04T17:27:27.269Z,97682.16
2018-02-04T17:29:58.358Z,97687.37
2018-02-04T17:32:29.447Z,97690.95
2018-02-04T17:35:00.509Z,97692.55
2018-02-04T17:37:31.659Z,97693.82
2018-02-04T17:40:02.756Z,97704.20
2018-02-04T17:42:33.907Z,97707.70
2018-02-04T17:45:05.001Z,97707.70
2018-02-04T17:47:36.127Z,97709.09
2018-02-04T17:50:07.221Z,97709.28
2018-02-04T17:52:38.400Z,97705.57
2018-02-04T17:55:09.527Z,97708.45
2018-02-04T17:57:40.882Z,97707.24
2018-02-04T18:00:11.998Z,97716.75
2018-02-04T18:02:43.042Z,97720.34
2018-02-04T18:05:14.179Z,97715.32
2018-02-04T18:07:46.026Z,97722.13
2018-02-04T18:10:17.182Z,97717.42
2018-02-04T18:12:48.369Z,97717.80
2018-02-04T18:15:19.434Z,97719.28
2018-02-04T18:17:50.604Z,97719.37
2018-02-04T18:20:21.645Z,97724.84
2018-02-04T18:22:52.713Z,97731.84
2018-02-04T18:25:23.860Z,97735.30
2018-02-04T18:27:54.995Z,97736.50
2018-02-04T18:30:26.185Z,97736.86
2018-02-04T18:32:57.323Z,97733.05
2018-02-04T18:35:28.414Z,97745.30
2018-02-04T18:37:59.659Z,97741.89
2018-02-04T18:40:30.767Z,97738.89
2018-02-04T18:43:01.856Z,97737.09
2018-02-04T18:45:32.999Z,97740.67
2018-02-04T18:48:04.126Z,97742.66
2018-02-04T18:50:35.302Z,97743.45
2018-02-04T18:53:06.453Z,97745.75
2018-02-04T18:55:37.549Z,97745.25
2018-02-04T18:58:08.582Z,97747.48
2018-02-04T19:00:39.636Z,97749.91
2018-02-04T19:03:10.691Z,97751.52
2018-02-04T19:05:41.971Z,97757.41
2018-02-04T19:08:13.051Z,97755.38
2018-02-04T19:10:44.195Z,97756.05
2018-02-04T19:13:15.251Z,97768.00
2018-02-04T19:15:46.376Z,97766.34
2018-02-04T19:18:17.498Z,97767.41
2018-02-04T19:20:48.606Z,97770.85
2018-02-04T19:23:19.730Z,97777.42
2018-02-04T19:25:50.869Z,97778.81
2018-02-04T19:28:21.959Z,97773.13
2018-02-04T19:30:53.101Z,97786.52
2018-02-04T19:33:24.178Z,97790.50
2018-02-04T19:35:55.329Z,97781.92
2018-02-04T19:38:26.407Z,97793.41
2018-02-04T19:40:57.531Z,97793.07
2018-02-04T19:43:28.621Z,97790.89
2018-02-04T19:45:59.773Z,97798.34
2018-02-04T19:48:30.826Z,97797.58
2018-02-04T19:51:01.972Z,97790.91
2018-02-04T19:53:33.114Z,97795.79
2018-02-04T19:56:04.236Z,97791.89
2018-02-04T19:58:35.325Z,97798.88
2018-02-04T20:01:07.035Z,97796.45
2018-02-04T20:03:38.134Z,97803.06
2018-02-04T20:06:09.356Z,97809.52
2018-02-04T20:08:40.480Z,97811.38
2018-02-04T20:11:11.603Z,97813.22
2018-02-04T20:13:42.648Z,97818.22
2018-02-04T20:16:13.754Z,97818.57
2018-02-04T20:18:44.836Z,97823.13
2018-02-04T20:21:15.906Z,97829.16
2018-02-04T20:23:47.024Z,97829.84
2018-02-04T20:26:18.144Z,97834.19
2018-02-04T20:28:49.230Z,97831.42
2018-02-04T20:31:21.023Z,97839.13
2018-02-04T20:34:04.480Z,97841.30
2018-02-04T20:36:35.628Z,97844.22
2018-02-04T20:39:06.667Z,97843.61
2018-02-04T20:41:37.785Z,97845.87
2018-02-04T20:44:08.826Z,97844.74
2018-02-04T20:46:39.930Z,97843.42
2018-02-04T20:49:11.016Z,97848.84
2018-02-04T20:51:42.153Z,97848.30
2018-02-04T20:54:13.298Z,97854.87
2018-02-04T20:56:44.340Z,97851.84
2018-02-04T20:59:15.463Z,97857.61
2018-02-04T21:01:46.525Z,97858.85
2018-02-04T21:04:17.594Z,97856.75
2018-02-04T21:06:48.724Z,97864.25
2018-02-04T21:09:19.990Z,97858.16
2018-02-04T21:11:51.030Z,97858.28
2018-02-04T21:14:22.168Z,97856.63
2018-02-04T21:16:53.258Z,97856.15
2018-02-04T21:19:24.386Z,97859.58
2018-02-04T21:21:55.498Z,97868.48
2018-02-04T21:24:26.642Z,97865.71
2018-02-04T21:26:57.788Z,97872.05
2018-02-04T21:29:28.891Z,97871.30
2018-02-04T21:31:59.958Z,97878.83
2018-02-04T21:34:31.096Z,97879.84
2018-02-04T21:37:02.148Z,97882.66
2018-02-04T21:39:33.268Z,97891.57
2018-02-04T21:42:04.338Z,97892.31
2018-02-04T21:44:35.461Z,97891.17
2018-02-04T21:47:06.507Z,97892.61
2018-02-04T21:49:37.622Z,97889.61
2018-02-04T21:52:08.676Z,97889.78
2018-02-04T21:54:39.718Z,97888.97
2018-02-04T21:57:10.802Z,97891.39
2018-02-04T21:59:41.848Z,97893.91
2018-02-04T22:02:12.974Z,97897.59
2018-02-04T22:04:44.071Z,97904.63
2018-02-04T22:07:15.336Z,97905.20
2018-02-04T22:09:46.378Z,97907.39
2018-02-04T22:12:17.479Z,97902.70
2018-02-04T22:14:48.605Z,97911.11
2018-02-04T22:17:19.655Z,97917.76
2018-02-04T22:19:50.746Z,97919.42
2018-02-04T22:22:22.016Z,97920.41
2018-02-04T22:24:54.164Z,97919.41
2018-02-04T22:27:25.284Z,97915.52
2018-02-04T22:29:56.394Z,97915.17
2018-02-04T22:32:27.468Z,97918.09
2018-02-04T22:34:58.595Z,97913.48
2018-02-04T22:37:29.670Z,97922.16
2018-02-04T22:40:00.812Z,97923.59
2018-02-04T22:42:31.876Z,97927.12
2018-02-04T22:45:02.987Z,97926.80
2018-02-04T22:47:34.035Z,97929.07
2018-02-04T22:50:05.140Z,97933.77
2018-02-04T22:52:36.260Z,97928.91
2018-02-04T22:55:07.416Z,97934.17
2018-02-04T22:57:38.510Z,97937.48
2018-02-04T23:00:09.679Z,97929.22
2018-02-04T23:02:40.824Z,97931.30
2018-02-04T23:05:11.894Z,97937.66
2018-02-04T23:07:42.985Z,97939.38
2018-02-04T23:10:14.069Z,97935.31
2018-02-04T23:12:45.147Z,97940.50
2018-02-04T23:15:16.264Z,97943.16
2018-02-04T23:17:47.320Z,97940.33
2018-02-04T23:20:18.514Z,97945.60
2018-02-04T23:22:49.539Z,97946.56
2018-02-04T23:25:20.671Z,97941.80
2018-02-04T23:27:51.759Z,97945.28
2018-02-04T23:30:22.855Z,97940.97
2018-02-04T23:32:53.891Z,97938.88
2018-02-04T23:35:25.006Z,97938.08
2018-02-04T23:37:56.116Z,97936.50
2018-02-04T23:40:27.264Z,97934.28
2018-02-04T23:42:58.360Z,97931.20
2018-02-04T23:45:29.422Z,97926.91
2018-02-04T23:48:00.530Z,97934.36
2018-02-04T23:50:31.582Z,97928.53
2018-02-04T23:53:03.670Z,97926.50
2018-02-04T23:55:34.742Z,97935.33
2018-02-04T23:58:05.885Z,97935.33
